PASV/SVW METAR and TAF weather

Enter ICAO airport designator
Station Type Date Time Source
PASV METAR 2021/09/28 14:55 UTC NOAA

PASV 281455Z 00000KT 10SM CLR M05/M07 A2945 RMK AO2A SLP994 5//// BWC LOW


Station Type Date Time Source
PASV Decoded METAR 2021/09/28 14:55 UTC NOAA

Sparrevohn Airways Facilities Sector, AK, United States (PASV) 61-06N 155-34W
Sep 28, 2021 - 10:55 AM EDT / 2021.09.28 1455 UTC
Wind: Calm:0
Visibility: 10 mile(s):0
Sky conditions: clear
Temperature: 23 F (-5 C)
Dew Point: 19 F (-7 C)
Relative Humidity: 85%
Pressure (altimeter): 29.45 in. Hg (997 hPa)
ob: PASV 281455Z 00000KT 10SM CLR M05/M07 A2945 RMK AO2A SLP994 5//// BWC LOW
cycle: 15

Station Type Date Time Source
PASV TAF 2012/01/12 14:57 UTC NOAA

TAF
AMD PASV 1214/1320 33010G15KT 4800 -SN BLSN SCT003 SCT110 QNH2984INS
BECMG 1221/1222 VRB06KT 9999 NSW FEW010 SCT110 QNH3000INS LIMITED METWATCH TM25/1300Z TM37/1315Z
AMD 121453

Example: see airport list